sensor_id;sensor_type;location;lat;lon;timestamp;pressure;altitude;pressure_sealevel;temperature
68911;BMP180;55953;51.650;-0.522;2023-07-29T00:00:01;99711.00;;;18.00
68911;BMP180;55953;51.650;-0.522;2023-07-29T00:02:59;99720.40;;;18.00
68911;BMP180;55953;51.650;-0.522;2023-07-29T00:05:27;99715.60;;;18.00
68911;BMP180;55953;51.650;-0.522;2023-07-29T00:07:55;99711.60;;;18.00
68911;BMP180;55953;51.650;-0.522;2023-07-29T00:10:22;99713.40;;;18.00
68911;BMP180;55953;51.650;-0.522;2023-07-29T00:12:50;99713.80;;;18.00
68911;BMP180;55953;51.650;-0.522;2023-07-29T00:15:18;99720.80;;;18.00
68911;BMP180;55953;51.650;-0.522;2023-07-29T00:17:46;99715.40;;;18.00
68911;BMP180;55953;51.650;-0.522;2023-07-29T00:20:15;99718.80;;;18.00
68911;BMP180;55953;51.650;-0.522;2023-07-29T00:22:42;99718.60;;;18.00
68911;BMP180;55953;51.650;-0.522;2023-07-29T00:25:11;99723.80;;;18.00
68911;BMP180;55953;51.650;-0.522;2023-07-29T00:27:38;99729.80;;;18.00
68911;BMP180;55953;51.650;-0.522;2023-07-29T00:30:07;99725.60;;;18.00
68911;BMP180;55953;51.650;-0.522;2023-07-29T00:32:36;99724.60;;;18.00
68911;BMP180;55953;51.650;-0.522;2023-07-29T00:35:06;99724.20;;;17.90
68911;BMP180;55953;51.650;-0.522;2023-07-29T00:37:34;99726.40;;;17.84
68911;BMP180;55953;51.650;-0.522;2023-07-29T00:40:02;99721.80;;;17.80
68911;BMP180;55953;51.650;-0.522;2023-07-29T00:42:31;99727.00;;;17.70
68911;BMP180;55953;51.650;-0.522;2023-07-29T00:44:58;99721.40;;;17.60
68911;BMP180;55953;51.650;-0.522;2023-07-29T00:47:26;99720.60;;;17.50
68911;BMP180;55953;51.650;-0.522;2023-07-29T00:49:54;99729.80;;;17.40
68911;BMP180;55953;51.650;-0.522;2023-07-29T00:52:22;99726.20;;;17.40
68911;BMP180;55953;51.650;-0.522;2023-07-29T00:54:51;99723.00;;;17.40
68911;BMP180;55953;51.650;-0.522;2023-07-29T00:57:21;99728.00;;;17.30
68911;BMP180;55953;51.650;-0.522;2023-07-29T00:59:49;99728.80;;;17.20
68911;BMP180;55953;51.650;-0.522;2023-07-29T01:02:17;99732.20;;;17.20
68911;BMP180;55953;51.650;-0.522;2023-07-29T01:04:45;99730.00;;;17.10
68911;BMP180;55953;51.650;-0.522;2023-07-29T01:07:38;99731.40;;;17.10
68911;BMP180;55953;51.650;-0.522;2023-07-29T01:16:17;99731.00;;;17.00
68911;BMP180;55953;51.650;-0.522;2023-07-29T01:18:47;99732.40;;;17.00
68911;BMP180;55953;51.650;-0.522;2023-07-29T01:21:17;99731.60;;;17.00
68911;BMP180;55953;51.650;-0.522;2023-07-29T01:23:45;99727.60;;;17.00
68911;BMP180;55953;51.650;-0.522;2023-07-29T01:26:13;99720.00;;;16.90
68911;BMP180;55953;51.650;-0.522;2023-07-29T01:28:41;99711.80;;;16.90
68911;BMP180;55953;51.650;-0.522;2023-07-29T01:31:20;99716.00;;;16.90
68911;BMP180;55953;51.650;-0.522;2023-07-29T01:33:58;99712.20;;;16.90
68911;BMP180;55953;51.650;-0.522;2023-07-29T01:36:32;99710.20;;;16.90
68911;BMP180;55953;51.650;-0.522;2023-07-29T01:39:02;99707.80;;;16.90
68911;BMP180;55953;51.650;-0.522;2023-07-29T01:41:31;99714.00;;;16.90
68911;BMP180;55953;51.650;-0.522;2023-07-29T01:43:59;99713.60;;;16.90
68911;BMP180;55953;51.650;-0.522;2023-07-29T01:46:27;99720.20;;;16.90
68911;BMP180;55953;51.650;-0.522;2023-07-29T01:48:55;99714.80;;;16.90
68911;BMP180;55953;51.650;-0.522;2023-07-29T01:51:22;99710.20;;;16.90
68911;BMP180;55953;51.650;-0.522;2023-07-29T01:53:50;99704.20;;;16.90
68911;BMP180;55953;51.650;-0.522;2023-07-29T01:56:18;99703.00;;;16.90
68911;BMP180;55953;51.650;-0.522;2023-07-29T01:58:55;99705.00;;;16.90
68911;BMP180;55953;51.650;-0.522;2023-07-29T02:01:22;99706.00;;;16.90
68911;BMP180;55953;51.650;-0.522;2023-07-29T02:03:51;99701.00;;;16.90
68911;BMP180;55953;51.650;-0.522;2023-07-29T02:06:22;99704.40;;;16.90
68911;BMP180;55953;51.650;-0.522;2023-07-29T02:08:51;99706.60;;;16.90
68911;BMP180;55953;51.650;-0.522;2023-07-29T02:11:19;99696.80;;;16.90
68911;BMP180;55953;51.650;-0.522;2023-07-29T02:13:48;99690.60;;;16.86
68911;BMP180;55953;51.650;-0.522;2023-07-29T02:16:16;99697.40;;;16.88
68911;BMP180;55953;51.650;-0.522;2023-07-29T02:18:44;99701.00;;;16.80
68911;BMP180;55953;51.650;-0.522;2023-07-29T02:21:12;99696.40;;;16.80
68911;BMP180;55953;51.650;-0.522;2023-07-29T02:23:39;99693.60;;;16.80
68911;BMP180;55953;51.650;-0.522;2023-07-29T02:26:07;99692.00;;;16.80
68911;BMP180;55953;51.650;-0.522;2023-07-29T02:28:35;99696.00;;;16.80
68911;BMP180;55953;51.650;-0.522;2023-07-29T02:31:21;99695.40;;;16.82
68911;BMP180;55953;51.650;-0.522;2023-07-29T02:33:50;99693.20;;;16.80
68911;BMP180;55953;51.650;-0.522;2023-07-29T02:36:18;99691.40;;;16.80
68911;BMP180;55953;51.650;-0.522;2023-07-29T02:38:46;99686.40;;;16.78
68911;BMP180;55953;51.650;-0.522;2023-07-29T02:41:14;99688.60;;;16.70
68911;BMP180;55953;51.650;-0.522;2023-07-29T02:43:49;99685.80;;;16.72
68911;BMP180;55953;51.650;-0.522;2023-07-29T02:46:17;99685.40;;;16.80
68911;BMP180;55953;51.650;-0.522;2023-07-29T02:48:46;99690.00;;;16.80
68911;BMP180;55953;51.650;-0.522;2023-07-29T02:51:14;99689.40;;;16.80
68911;BMP180;55953;51.650;-0.522;2023-07-29T02:53:42;99680.40;;;16.80
68911;BMP180;55953;51.650;-0.522;2023-07-29T02:56:10;99678.40;;;16.80
68911;BMP180;55953;51.650;-0.522;2023-07-29T02:58:39;99669.80;;;16.80
68911;BMP180;55953;51.650;-0.522;2023-07-29T03:01:07;99671.20;;;16.82
68911;BMP180;55953;51.650;-0.522;2023-07-29T03:03:35;99678.40;;;16.80
68911;BMP180;55953;51.650;-0.522;2023-07-29T03:06:07;99682.00;;;16.80
68911;BMP180;55953;51.650;-0.522;2023-07-29T03:08:36;99685.20;;;16.80
68911;BMP180;55953;51.650;-0.522;2023-07-29T03:11:07;99687.40;;;16.78
68911;BMP180;55953;51.650;-0.522;2023-07-29T03:13:35;99687.00;;;16.72
68911;BMP180;55953;51.650;-0.522;2023-07-29T03:16:10;99682.00;;;16.70
68911;BMP180;55953;51.650;-0.522;2023-07-29T03:18:39;99677.80;;;16.70
68911;BMP180;55953;51.650;-0.522;2023-07-29T03:21:08;99676.40;;;16.70
68911;BMP180;55953;51.650;-0.522;2023-07-29T03:23:38;99679.80;;;16.70
68911;BMP180;55953;51.650;-0.522;2023-07-29T03:26:05;99680.00;;;16.62
68911;BMP180;55953;51.650;-0.522;2023-07-29T03:28:42;99676.40;;;16.60
68911;BMP180;55953;51.650;-0.522;2023-07-29T03:31:11;99675.80;;;16.70
68911;BMP180;55953;51.650;-0.522;2023-07-29T03:33:39;99686.00;;;16.60
68911;BMP180;55953;51.650;-0.522;2023-07-29T03:36:07;99681.40;;;16.60
68911;BMP180;55953;51.650;-0.522;2023-07-29T03:38:35;99683.20;;;16.60
68911;BMP180;55953;51.650;-0.522;2023-07-29T03:41:08;99682.80;;;16.60
68911;BMP180;55953;51.650;-0.522;2023-07-29T03:43:36;99682.40;;;16.60
68911;BMP180;55953;51.650;-0.522;2023-07-29T03:46:04;99676.80;;;16.60
68911;BMP180;55953;51.650;-0.522;2023-07-29T03:48:36;99682.00;;;16.60
68911;BMP180;55953;51.650;-0.522;2023-07-29T03:51:04;99686.20;;;16.60
68911;BMP180;55953;51.650;-0.522;2023-07-29T03:53:32;99689.60;;;16.60
68911;BMP180;55953;51.650;-0.522;2023-07-29T03:56:00;99684.00;;;16.50
68911;BMP180;55953;51.650;-0.522;2023-07-29T03:58:27;99682.60;;;16.50
68911;BMP180;55953;51.650;-0.522;2023-07-29T04:00:55;99682.20;;;16.50
68911;BMP180;55953;51.650;-0.522;2023-07-29T04:03:23;99685.40;;;16.50
68911;BMP180;55953;51.650;-0.522;2023-07-29T04:05:52;99683.80;;;16.50
68911;BMP180;55953;51.650;-0.522;2023-07-29T04:08:20;99687.20;;;16.50
68911;BMP180;55953;51.650;-0.522;2023-07-29T04:10:48;99681.60;;;16.50
68911;BMP180;55953;51.650;-0.522;2023-07-29T04:13:16;99684.40;;;16.50
68911;BMP180;55953;51.650;-0.522;2023-07-29T04:15:45;99690.00;;;16.50
68911;BMP180;55953;51.650;-0.522;2023-07-29T04:18:12;99690.40;;;16.50
68911;BMP180;55953;51.650;-0.522;2023-07-29T04:20:41;99684.20;;;16.50
68911;BMP180;55953;51.650;-0.522;2023-07-29T04:23:09;99682.80;;;16.52
68911;BMP180;55953;51.650;-0.522;2023-07-29T04:25:37;99679.60;;;16.52
68911;BMP180;55953;51.650;-0.522;2023-07-29T04:28:04;99682.40;;;16.60
68911;BMP180;55953;51.650;-0.522;2023-07-29T04:30:33;99689.60;;;16.54
68911;BMP180;55953;51.650;-0.522;2023-07-29T04:33:00;99684.00;;;16.60
68911;BMP180;55953;51.650;-0.522;2023-07-29T04:35:28;99678.00;;;16.60
68911;BMP180;55953;51.650;-0.522;2023-07-29T04:37:56;99680.80;;;16.60
68911;BMP180;55953;51.650;-0.522;2023-07-29T04:40:24;99681.00;;;16.60
68911;BMP180;55953;51.650;-0.522;2023-07-29T04:42:52;99688.80;;;16.60
68911;BMP180;55953;51.650;-0.522;2023-07-29T04:45:20;99686.00;;;16.60
68911;BMP180;55953;51.650;-0.522;2023-07-29T04:47:48;99692.80;;;16.60
68911;BMP180;55953;51.650;-0.522;2023-07-29T04:50:16;99682.20;;;16.70
68911;BMP180;55953;51.650;-0.522;2023-07-29T04:52:43;99683.00;;;16.70
68911;BMP180;55953;51.650;-0.522;2023-07-29T04:55:11;99687.60;;;16.70
68911;BMP180;55953;51.650;-0.522;2023-07-29T04:57:39;99690.80;;;16.60
68911;BMP180;55953;51.650;-0.522;2023-07-29T05:00:07;99691.80;;;16.60
68911;BMP180;55953;51.650;-0.522;2023-07-29T05:02:35;99685.20;;;16.62
68911;BMP180;55953;51.650;-0.522;2023-07-29T05:05:04;99686.80;;;16.70
68911;BMP180;55953;51.650;-0.522;2023-07-29T05:07:32;99688.80;;;16.70
68911;BMP180;55953;51.650;-0.522;2023-07-29T05:10:00;99692.40;;;16.70
68911;BMP180;55953;51.650;-0.522;2023-07-29T05:12:28;99688.40;;;16.80
68911;BMP180;55953;51.650;-0.522;2023-07-29T05:14:57;99684.80;;;16.80
68911;BMP180;55953;51.650;-0.522;2023-07-29T05:17:25;99684.00;;;16.80
68911;BMP180;55953;51.650;-0.522;2023-07-29T05:19:53;99681.60;;;16.82
68911;BMP180;55953;51.650;-0.522;2023-07-29T05:22:21;99685.60;;;16.90
68911;BMP180;55953;51.650;-0.522;2023-07-29T05:24:49;99688.40;;;16.90
68911;BMP180;55953;51.650;-0.522;2023-07-29T05:27:16;99687.40;;;17.00
68911;BMP180;55953;51.650;-0.522;2023-07-29T05:29:44;99684.80;;;17.00
68911;BMP180;55953;51.650;-0.522;2023-07-29T05:32:12;99682.60;;;17.00
68911;BMP180;55953;51.650;-0.522;2023-07-29T05:34:42;99677.80;;;17.10
68911;BMP180;55953;51.650;-0.522;2023-07-29T05:37:10;99676.80;;;17.10
68911;BMP180;55953;51.650;-0.522;2023-07-29T05:39:38;99682.40;;;17.10
68911;BMP180;55953;51.650;-0.522;2023-07-29T05:42:06;99689.00;;;17.10
68911;BMP180;55953;51.650;-0.522;2023-07-29T05:44:34;99689.60;;;17.20
68911;BMP180;55953;51.650;-0.522;2023-07-29T05:47:01;99695.60;;;17.20
68911;BMP180;55953;51.650;-0.522;2023-07-29T05:49:30;99695.80;;;17.10
68911;BMP180;55953;51.650;-0.522;2023-07-29T05:51:58;99698.40;;;17.10
68911;BMP180;55953;51.650;-0.522;2023-07-29T05:54:26;99694.40;;;17.18
68911;BMP180;55953;51.650;-0.522;2023-07-29T05:56:53;99699.40;;;17.20
68911;BMP180;55953;51.650;-0.522;2023-07-29T05:59:21;99695.80;;;17.20
68911;BMP180;55953;51.650;-0.522;2023-07-29T06:01:50;99692.60;;;17.20
68911;BMP180;55953;51.650;-0.522;2023-07-29T06:04:18;99679.80;;;17.26
68911;BMP180;55953;51.650;-0.522;2023-07-29T06:06:46;99687.00;;;17.30
68911;BMP180;55953;51.650;-0.522;2023-07-29T06:09:14;99689.00;;;17.40
68911;BMP180;55953;51.650;-0.522;2023-07-29T06:11:41;99685.60;;;17.44
68911;BMP180;55953;51.650;-0.522;2023-07-29T06:14:09;99688.80;;;17.48
68911;BMP180;55953;51.650;-0.522;2023-07-29T06:16:37;99686.60;;;17.50
68911;BMP180;55953;51.650;-0.522;2023-07-29T06:19:05;99694.80;;;17.46
68911;BMP180;55953;51.650;-0.522;2023-07-29T06:21:36;99692.80;;;17.50
68911;BMP180;55953;51.650;-0.522;2023-07-29T06:24:04;99689.40;;;17.60
68911;BMP180;55953;51.650;-0.522;2023-07-29T06:26:33;99689.80;;;17.70
68911;BMP180;55953;51.650;-0.522;2023-07-29T06:29:02;99693.80;;;17.70
68911;BMP180;55953;51.650;-0.522;2023-07-29T06:31:29;99692.00;;;17.80
68911;BMP180;55953;51.650;-0.522;2023-07-29T06:33:58;99693.00;;;17.90
68911;BMP180;55953;51.650;-0.522;2023-07-29T06:36:26;99692.00;;;17.96
68911;BMP180;55953;51.650;-0.522;2023-07-29T06:38:54;99695.80;;;17.98
68911;BMP180;55953;51.650;-0.522;2023-07-29T06:41:22;99693.20;;;18.00
68911;BMP180;55953;51.650;-0.522;2023-07-29T06:43:50;99695.60;;;18.00
68911;BMP180;55953;51.650;-0.522;2023-07-29T06:46:18;99698.40;;;18.10
68911;BMP180;55953;51.650;-0.522;2023-07-29T06:48:46;99691.80;;;18.14
68911;BMP180;55953;51.650;-0.522;2023-07-29T06:51:13;99691.20;;;18.20
68911;BMP180;55953;51.650;-0.522;2023-07-29T06:53:41;99691.20;;;18.20
68911;BMP180;55953;51.650;-0.522;2023-07-29T06:56:09;99689.40;;;18.20
68911;BMP180;55953;51.650;-0.522;2023-07-29T06:58:37;99694.60;;;18.28
68911;BMP180;55953;51.650;-0.522;2023-07-29T07:01:05;99694.60;;;18.20
68911;BMP180;55953;51.650;-0.522;2023-07-29T07:03:32;99688.60;;;18.30
68911;BMP180;55953;51.650;-0.522;2023-07-29T07:06:01;99695.40;;;18.40
68911;BMP180;55953;51.650;-0.522;2023-07-29T07:08:29;99701.40;;;18.50
68911;BMP180;55953;51.650;-0.522;2023-07-29T07:10:58;99703.40;;;18.50
68911;BMP180;55953;51.650;-0.522;2023-07-29T07:13:26;99702.60;;;18.60
68911;BMP180;55953;51.650;-0.522;2023-07-29T07:15:55;99709.60;;;18.58
68911;BMP180;55953;51.650;-0.522;2023-07-29T07:18:23;99711.20;;;18.50
68911;BMP180;55953;51.650;-0.522;2023-07-29T07:20:52;99714.00;;;18.50
68911;BMP180;55953;51.650;-0.522;2023-07-29T07:23:19;99715.80;;;18.48
68911;BMP180;55953;51.650;-0.522;2023-07-29T07:25:47;99710.40;;;18.50
68911;BMP180;55953;51.650;-0.522;2023-07-29T07:28:15;99705.20;;;18.50
68911;BMP180;55953;51.650;-0.522;2023-07-29T07:30:43;99706.80;;;18.54
68911;BMP180;55953;51.650;-0.522;2023-07-29T07:33:11;99705.20;;;18.70
68911;BMP180;55953;51.650;-0.522;2023-07-29T07:35:38;99701.80;;;18.70
68911;BMP180;55953;51.650;-0.522;2023-07-29T07:38:06;99698.80;;;18.64
68911;BMP180;55953;51.650;-0.522;2023-07-29T07:40:36;99694.00;;;18.70
68911;BMP180;55953;51.650;-0.522;2023-07-29T07:43:04;99692.40;;;18.60
68911;BMP180;55953;51.650;-0.522;2023-07-29T07:45:33;99694.80;;;18.70
68911;BMP180;55953;51.650;-0.522;2023-07-29T07:48:00;99694.00;;;18.76
68911;BMP180;55953;51.650;-0.522;2023-07-29T07:50:31;99693.60;;;18.90
68911;BMP180;55953;51.650;-0.522;2023-07-29T07:52:58;99689.40;;;19.00
68911;BMP180;55953;51.650;-0.522;2023-07-29T07:55:26;99688.00;;;19.00
68911;BMP180;55953;51.650;-0.522;2023-07-29T07:57:54;99685.60;;;19.04
68911;BMP180;55953;51.650;-0.522;2023-07-29T08:00:23;99689.20;;;19.18
68911;BMP180;55953;51.650;-0.522;2023-07-29T08:02:51;99693.60;;;19.30
68911;BMP180;55953;51.650;-0.522;2023-07-29T08:05:19;99695.60;;;19.50
68911;BMP180;55953;51.650;-0.522;2023-07-29T08:07:47;99698.60;;;19.50
68911;BMP180;55953;51.650;-0.522;2023-07-29T08:10:15;99699.60;;;19.50
68911;BMP180;55953;51.650;-0.522;2023-07-29T08:12:43;99700.40;;;19.50
68911;BMP180;55953;51.650;-0.522;2023-07-29T08:15:11;99700.00;;;19.50
68911;BMP180;55953;51.650;-0.522;2023-07-29T08:17:38;99695.20;;;19.50
68911;BMP180;55953;51.650;-0.522;2023-07-29T08:20:07;99703.60;;;19.50
68911;BMP180;55953;51.650;-0.522;2023-07-29T08:22:35;99698.00;;;19.62
68911;BMP180;55953;51.650;-0.522;2023-07-29T08:25:03;99695.00;;;19.70
68911;BMP180;55953;51.650;-0.522;2023-07-29T08:27:33;99696.00;;;19.70
68911;BMP180;55953;51.650;-0.522;2023-07-29T08:30:02;99696.20;;;19.70
68911;BMP180;55953;51.650;-0.522;2023-07-29T08:32:30;99691.80;;;19.60
68911;BMP180;55953;51.650;-0.522;2023-07-29T08:34:57;99691.40;;;19.50
68911;BMP180;55953;51.650;-0.522;2023-07-29T08:37:25;99687.20;;;19.50
68911;BMP180;55953;51.650;-0.522;2023-07-29T08:39:54;99684.00;;;19.60
68911;BMP180;55953;51.650;-0.522;2023-07-29T08:42:23;99693.00;;;19.52
68911;BMP180;55953;51.650;-0.522;2023-07-29T08:44:56;99695.60;;;19.60
68911;BMP180;55953;51.650;-0.522;2023-07-29T08:47:24;99693.60;;;19.50
68911;BMP180;55953;51.650;-0.522;2023-07-29T08:49:53;99691.20;;;19.40
68911;BMP180;55953;51.650;-0.522;2023-07-29T08:52:22;99688.20;;;19.20
68911;BMP180;55953;51.650;-0.522;2023-07-29T08:54:51;99688.40;;;19.10
68911;BMP180;55953;51.650;-0.522;2023-07-29T08:57:20;99686.40;;;19.00
68911;BMP180;55953;51.650;-0.522;2023-07-29T08:59:49;99692.20;;;19.00
68911;BMP180;55953;51.650;-0.522;2023-07-29T09:02:18;99685.20;;;19.10
68911;BMP180;55953;51.650;-0.522;2023-07-29T09:04:45;99689.00;;;19.04
68911;BMP180;55953;51.650;-0.522;2023-07-29T09:07:14;99695.20;;;19.04
68911;BMP180;55953;51.650;-0.522;2023-07-29T09:09:42;99694.00;;;19.20
68911;BMP180;55953;51.650;-0.522;2023-07-29T09:12:10;99694.00;;;19.30
68911;BMP180;55953;51.650;-0.522;2023-07-29T09:14:39;99695.00;;;19.40
68911;BMP180;55953;51.650;-0.522;2023-07-29T09:17:08;99704.00;;;19.50
68911;BMP180;55953;51.650;-0.522;2023-07-29T09:19:37;99699.20;;;19.58
68911;BMP180;55953;51.650;-0.522;2023-07-29T09:22:17;99701.40;;;19.70
68911;BMP180;55953;51.650;-0.522;2023-07-29T09:24:46;99695.40;;;20.00
68911;BMP180;55953;51.650;-0.522;2023-07-29T09:27:28;99691.60;;;20.20
68911;BMP180;55953;51.650;-0.522;2023-07-29T09:29:59;99683.40;;;20.30
68911;BMP180;55953;51.650;-0.522;2023-07-29T09:32:27;99685.40;;;20.30
68911;BMP180;55953;51.650;-0.522;2023-07-29T09:34:54;99693.20;;;20.40
68911;BMP180;55953;51.650;-0.522;2023-07-29T09:37:23;99686.80;;;20.60
68911;BMP180;55953;51.650;-0.522;2023-07-29T09:39:52;99688.00;;;20.60
68911;BMP180;55953;51.650;-0.522;2023-07-29T09:42:22;99678.80;;;20.60
68911;BMP180;55953;51.650;-0.522;2023-07-29T09:44:50;99673.80;;;20.70
68911;BMP180;55953;51.650;-0.522;2023-07-29T09:47:20;99678.40;;;20.70
68911;BMP180;55953;51.650;-0.522;2023-07-29T09:49:50;99672.80;;;20.70
68911;BMP180;55953;51.650;-0.522;2023-07-29T09:52:22;99676.00;;;20.88
68911;BMP180;55953;51.650;-0.522;2023-07-29T09:54:50;99680.00;;;21.02
68911;BMP180;55953;51.650;-0.522;2023-07-29T09:57:19;99683.20;;;21.20
68911;BMP180;55953;51.650;-0.522;2023-07-29T09:59:54;99686.80;;;21.38
68911;BMP180;55953;51.650;-0.522;2023-07-29T10:02:23;99687.00;;;21.60
68911;BMP180;55953;51.650;-0.522;2023-07-29T10:04:54;99687.40;;;21.70
68911;BMP180;55953;51.650;-0.522;2023-07-29T10:07:23;99686.00;;;21.72
68911;BMP180;55953;51.650;-0.522;2023-07-29T10:09:52;99691.40;;;21.70
68911;BMP180;55953;51.650;-0.522;2023-07-29T10:12:21;99706.60;;;21.50
68911;BMP180;55953;51.650;-0.522;2023-07-29T10:14:50;99715.00;;;21.10
68911;BMP180;55953;51.650;-0.522;2023-07-29T10:17:20;99717.80;;;20.80
68911;BMP180;55953;51.650;-0.522;2023-07-29T10:19:49;99713.20;;;20.80
68911;BMP180;55953;51.650;-0.522;2023-07-29T10:22:20;99714.60;;;20.90
68911;BMP180;55953;51.650;-0.522;2023-07-29T10:24:51;99713.20;;;21.00
68911;BMP180;55953;51.650;-0.522;2023-07-29T10:27:24;99712.80;;;21.00
68911;BMP180;55953;51.650;-0.522;2023-07-29T10:29:55;99708.00;;;21.10
68911;BMP180;55953;51.650;-0.522;2023-07-29T10:32:25;99710.80;;;21.20
68911;BMP180;55953;51.650;-0.522;2023-07-29T10:34:54;99710.00;;;21.40
68911;BMP180;55953;51.650;-0.522;2023-07-29T10:37:23;99710.80;;;21.60
68911;BMP180;55953;51.650;-0.522;2023-07-29T10:39:55;99708.40;;;21.72
68911;BMP180;55953;51.650;-0.522;2023-07-29T10:42:23;99708.80;;;21.90
68911;BMP180;55953;51.650;-0.522;2023-07-29T10:44:54;99712.80;;;21.90
68911;BMP180;55953;51.650;-0.522;2023-07-29T10:47:28;99704.60;;;22.18
68911;BMP180;55953;51.650;-0.522;2023-07-29T10:49:58;99707.20;;;22.40
68911;BMP180;55953;51.650;-0.522;2023-07-29T10:57:52;99712.80;;;22.40
68911;BMP180;55953;51.650;-0.522;2023-07-29T11:00:20;99716.60;;;22.40
68911;BMP180;55953;51.650;-0.522;2023-07-29T11:03:02;99706.00;;;22.50
68911;BMP180;55953;51.650;-0.522;2023-07-29T11:08:19;99719.60;;;22.50
68911;BMP180;55953;51.650;-0.522;2023-07-29T11:11:06;99711.20;;;22.40
68911;BMP180;55953;51.650;-0.522;2023-07-29T11:13:36;99710.80;;;22.30
68911;BMP180;55953;51.650;-0.522;2023-07-29T11:16:06;99708.80;;;22.38
68911;BMP180;55953;51.650;-0.522;2023-07-29T11:18:35;99708.00;;;22.50
68911;BMP180;55953;51.650;-0.522;2023-07-29T11:21:04;99702.20;;;22.60
68911;BMP180;55953;51.650;-0.522;2023-07-29T11:23:35;99699.20;;;22.60
68911;BMP180;55953;51.650;-0.522;2023-07-29T11:26:04;99700.60;;;22.70
68911;BMP180;55953;51.650;-0.522;2023-07-29T11:28:38;99701.40;;;22.80
68911;BMP180;55953;51.650;-0.522;2023-07-29T11:31:07;99705.20;;;22.80
68911;BMP180;55953;51.650;-0.522;2023-07-29T11:33:35;99703.40;;;22.64
68911;BMP180;55953;51.650;-0.522;2023-07-29T11:36:03;99702.60;;;22.50
68911;BMP180;55953;51.650;-0.522;2023-07-29T11:38:31;99701.60;;;22.40
68911;BMP180;55953;51.650;-0.522;2023-07-29T11:41:04;99697.60;;;22.66
68911;BMP180;55953;51.650;-0.522;2023-07-29T11:43:36;99697.80;;;22.80
68911;BMP180;55953;51.650;-0.522;2023-07-29T11:46:04;99697.80;;;22.80
68911;BMP180;55953;51.650;-0.522;2023-07-29T11:48:33;99705.80;;;22.80
68911;BMP180;55953;51.650;-0.522;2023-07-29T11:51:02;99694.20;;;22.88
68911;BMP180;55953;51.650;-0.522;2023-07-29T11:53:31;99716.40;;;23.00
68911;BMP180;55953;51.650;-0.522;2023-07-29T11:55:59;99701.20;;;22.88
68911;BMP180;55953;51.650;-0.522;2023-07-29T11:58:27;99710.20;;;23.04
68911;BMP180;55953;51.650;-0.522;2023-07-29T12:00:56;99711.00;;;23.10
68911;BMP180;55953;51.650;-0.522;2023-07-29T12:03:25;99705.00;;;23.10
68911;BMP180;55953;51.650;-0.522;2023-07-29T12:05:53;99697.20;;;23.32
68911;BMP180;55953;51.650;-0.522;2023-07-29T12:08:21;99701.40;;;23.60
68911;BMP180;55953;51.650;-0.522;2023-07-29T12:10:49;99703.20;;;23.90
68911;BMP180;55953;51.650;-0.522;2023-07-29T12:13:17;99706.60;;;24.00
68911;BMP180;55953;51.650;-0.522;2023-07-29T12:15:45;99711.80;;;23.98
68911;BMP180;55953;51.650;-0.522;2023-07-29T12:18:12;99714.40;;;23.98
68911;BMP180;55953;51.650;-0.522;2023-07-29T12:20:41;99713.00;;;24.04
68911;BMP180;55953;51.650;-0.522;2023-07-29T12:23:09;99719.40;;;24.16
68911;BMP180;55953;51.650;-0.522;2023-07-29T12:25:37;99721.20;;;24.00
68911;BMP180;55953;51.650;-0.522;2023-07-29T12:28:06;99723.00;;;23.80
68911;BMP180;55953;51.650;-0.522;2023-07-29T12:30:42;99722.20;;;23.80
68911;BMP180;55953;51.650;-0.522;2023-07-29T12:33:10;99718.60;;;23.80
68911;BMP180;55953;51.650;-0.522;2023-07-29T12:35:38;99722.60;;;23.80
68911;BMP180;55953;51.650;-0.522;2023-07-29T12:38:06;99727.80;;;23.70
68911;BMP180;55953;51.650;-0.522;2023-07-29T12:40:38;99728.60;;;23.78
68911;BMP180;55953;51.650;-0.522;2023-07-29T12:43:07;99732.20;;;23.70
68911;BMP180;55953;51.650;-0.522;2023-07-29T12:45:36;99725.60;;;23.60
68911;BMP180;55953;51.650;-0.522;2023-07-29T12:48:04;99722.20;;;23.40
68911;BMP180;55953;51.650;-0.522;2023-07-29T12:50:32;99719.20;;;23.30
68911;BMP180;55953;51.650;-0.522;2023-07-29T12:53:00;99724.00;;;23.20
68911;BMP180;55953;51.650;-0.522;2023-07-29T12:55:28;99730.60;;;22.90
68911;BMP180;55953;51.650;-0.522;2023-07-29T12:57:55;99733.40;;;22.70
68911;BMP180;55953;51.650;-0.522;2023-07-29T13:00:25;99727.60;;;22.80
68911;BMP180;55953;51.650;-0.522;2023-07-29T13:02:54;99723.60;;;23.20
68911;BMP180;55953;51.650;-0.522;2023-07-29T13:05:22;99723.00;;;23.50
68911;BMP180;55953;51.650;-0.522;2023-07-29T13:07:49;99725.40;;;23.60
68911;BMP180;55953;51.650;-0.522;2023-07-29T13:10:17;99728.80;;;23.70
68911;BMP180;55953;51.650;-0.522;2023-07-29T13:12:45;99722.20;;;23.78
68911;BMP180;55953;51.650;-0.522;2023-07-29T13:15:13;99723.60;;;23.88
68911;BMP180;55953;51.650;-0.522;2023-07-29T13:17:40;99726.40;;;23.90
68911;BMP180;55953;51.650;-0.522;2023-07-29T13:20:09;99728.00;;;23.90
68911;BMP180;55953;51.650;-0.522;2023-07-29T13:22:37;99718.40;;;23.90
68911;BMP180;55953;51.650;-0.522;2023-07-29T13:25:05;99728.40;;;24.00
68911;BMP180;55953;51.650;-0.522;2023-07-29T13:27:33;99727.20;;;24.10
68911;BMP180;55953;51.650;-0.522;2023-07-29T13:30:00;99736.40;;;23.86
68911;BMP180;55953;51.650;-0.522;2023-07-29T13:32:28;99730.20;;;23.70
68911;BMP180;55953;51.650;-0.522;2023-07-29T13:34:56;99734.40;;;23.60
68911;BMP180;55953;51.650;-0.522;2023-07-29T13:37:24;99732.20;;;23.80
68911;BMP180;55953;51.650;-0.522;2023-07-29T13:39:51;99728.80;;;24.04
68911;BMP180;55953;51.650;-0.522;2023-07-29T13:42:19;99731.80;;;24.30
68911;BMP180;55953;51.650;-0.522;2023-07-29T13:44:47;99726.40;;;24.40
68911;BMP180;55953;51.650;-0.522;2023-07-29T13:47:15;99734.40;;;24.30
68911;BMP180;55953;51.650;-0.522;2023-07-29T13:49:43;99737.00;;;24.10
68911;BMP180;55953;51.650;-0.522;2023-07-29T13:52:10;99739.80;;;23.80
68911;BMP180;55953;51.650;-0.522;2023-07-29T13:54:38;99743.80;;;23.52
68911;BMP180;55953;51.650;-0.522;2023-07-29T13:57:07;99746.20;;;23.42
68911;BMP180;55953;51.650;-0.522;2023-07-29T13:59:34;99743.00;;;23.20
68911;BMP180;55953;51.650;-0.522;2023-07-29T14:02:03;99745.60;;;23.20
68911;BMP180;55953;51.650;-0.522;2023-07-29T14:04:32;99755.20;;;23.00
68911;BMP180;55953;51.650;-0.522;2023-07-29T14:07:00;99754.40;;;23.16
68911;BMP180;55953;51.650;-0.522;2023-07-29T14:09:29;99759.80;;;23.48
68911;BMP180;55953;51.650;-0.522;2023-07-29T14:11:56;99756.00;;;23.50
68911;BMP180;55953;51.650;-0.522;2023-07-29T14:14:24;99753.20;;;23.64
68911;BMP180;55953;51.650;-0.522;2023-07-29T14:16:52;99759.00;;;23.98
68911;BMP180;55953;51.650;-0.522;2023-07-29T14:19:20;99761.80;;;23.90